Time;durP1;ratioP1;P1;durP2;ratioP2;P2;SDS_P1;SDS_P2;PMS_P1;PMS_P2;Temp;Humidity;BMP_temperature;BMP_pressure;BME280_temperature;BME280_humidity;BME280_pressure;Samples;Min_cycle;Max_cycle;Signal;HPM_P1;HPM_P2
2022/05/29 00:02:07;;;;;;;16.55;9.20;;;;;;;19.00;100.00;100497.52;1718163;83;21039;-75
2022/05/29 00:04:36;;;;;;;16.82;10.10;;;;;;;19.01;100.00;100495.25;1717650;83;21091;-75
2022/05/29 00:07:04;;;;;;;16.48;9.55;;;;;;;18.90;100.00;100497.91;1718174;83;21004;-75
2022/05/29 00:09:47;;;;;;;15.93;9.78;;;;;;;18.85;100.00;100496.12;1717967;83;21083;-74
2022/05/29 00:12:18;;;;;;;16.37;9.80;;;;;;;18.82;100.00;100502.90;1718282;83;21023;-75
2022/05/29 00:14:47;;;;;;;16.00;9.83;;;;;;;18.81;100.00;100505.14;1718120;83;20980;-75
2022/05/29 00:17:18;;;;;;;15.45;9.33;;;;;;;18.77;100.00;100501.08;1718042;83;21063;-75
2022/05/29 00:19:45;;;;;;;17.40;9.53;;;;;;;18.82;100.00;100496.38;1718160;83;21030;-75
2022/05/29 00:22:17;;;;;;;17.07;9.58;;;;;;;18.91;100.00;100486.98;1689615;83;21051;-75
2022/05/29 00:24:48;;;;;;;16.37;9.30;;;;;;;18.99;100.00;100489.81;1718297;83;20993;-75
2022/05/29 00:27:17;;;;;;;16.70;9.88;;;;;;;19.03;100.00;100486.48;1718062;83;21035;-75
2022/05/29 00:29:44;;;;;;;15.65;10.00;;;;;;;19.04;100.00;100488.13;1718274;83;21497;-74
2022/05/29 00:32:12;;;;;;;14.68;9.98;;;;;;;18.92;100.00;100479.05;1718188;83;21012;-74
2022/05/29 00:34:39;;;;;;;17.73;10.60;;;;;;;18.94;100.00;100478.94;1718008;83;21031;-74
2022/05/29 00:37:08;;;;;;;15.32;10.40;;;;;;;18.92;100.00;100471.70;1718203;83;21047;-74
2022/05/29 00:39:36;;;;;;;13.30;9.93;;;;;;;18.89;100.00;100481.89;1718294;83;21011;-75
2022/05/29 00:42:07;;;;;;;15.98;10.58;;;;;;;18.88;100.00;100484.16;1718533;83;21565;-74
2022/05/29 00:44:36;;;;;;;19.30;10.08;;;;;;;18.86;100.00;100479.53;1718355;83;21520;-75
2022/05/29 00:47:15;;;;;;;15.40;10.10;;;;;;;18.81;100.00;100475.97;1718294;83;21114;-74
2022/05/29 00:49:47;;;;;;;15.05;10.08;;;;;;;18.81;100.00;100468.14;1717452;83;21012;-74
2022/05/29 00:52:19;;;;;;;15.63;10.23;;;;;;;18.82;100.00;100470.30;1689887;83;21134;-74
2022/05/29 00:54:55;;;;;;;18.30;10.60;;;;;;;18.78;100.00;100467.06;1712670;83;21039;-75
2022/05/29 00:57:30;;;;;;;17.00;10.20;;;;;;;18.81;100.00;100467.32;1710426;84;21036;-75
2022/05/29 01:00:02;;;;;;;14.07;9.60;;;;;;;18.84;100.00;100464.48;1710224;83;21327;-75
2022/05/29 01:02:30;;;;;;;13.30;9.47;;;;;;;18.80;100.00;100467.80;1709873;84;21171;-74
2022/05/29 01:04:58;;;;;;;13.13;8.78;;;;;;;18.81;100.00;100457.71;1710378;83;21508;-74
2022/05/29 01:07:28;;;;;;;14.25;9.03;;;;;;;18.76;100.00;100457.72;1710346;84;21027;-74
2022/05/29 01:09:56;;;;;;;14.28;8.53;;;;;;;18.68;100.00;100462.71;1710134;84;21000;-75
2022/05/29 01:12:49;;;;;;;12.45;8.30;;;;;;;18.69;100.00;100468.27;1710196;84;21513;-74
2022/05/29 01:15:41;;;;;;;13.38;7.90;;;;;;;18.72;100.00;100467.55;1710348;83;21508;-74
2022/05/29 01:18:28;;;;;;;11.18;7.53;;;;;;;18.75;100.00;100472.99;1710120;84;21133;-74
2022/05/29 01:21:22;;;;;;;12.03;7.67;;;;;;;18.78;100.00;100476.67;1710254;84;21536;-74
2022/05/29 01:24:09;;;;;;;12.58;8.15;;;;;;;18.77;100.00;100477.61;1710530;84;21110;-74
2022/05/29 01:27:08;;;;;;;13.22;8.48;;;;;;;18.31;100.00;100470.32;1710362;84;21540;-73
2022/05/29 01:29:41;;;;;;;12.95;8.45;;;;;;;18.91;100.00;100476.55;1710336;84;21044;-74
2022/05/29 01:32:13;;;;;;;12.60;8.28;;;;;;;18.97;100.00;100479.49;1710107;84;21075;-74
2022/05/29 01:34:58;;;;;;;11.70;8.08;;;;;;;18.93;100.00;100485.09;1709955;84;21023;-74
2022/05/29 01:37:49;;;;;;;12.98;8.13;;;;;;;18.73;100.00;100485.33;1688680;84;21536;-74
2022/05/29 01:40:56;;;;;;;15.30;9.25;;;;;;;18.62;100.00;100488.30;1694912;84;21039;-74
2022/05/29 01:43:38;;;;;;;11.80;8.68;;;;;;;18.60;100.00;100491.98;1697890;84;21032;-73
2022/05/29 01:46:15;;;;;;;13.83;9.00;;;;;;;18.64;100.00;100489.97;1710324;83;21023;-74
2022/05/29 01:49:21;;;;;;;15.13;8.88;;;;;;;18.73;100.00;100502.27;1710166;84;21583;-73
2022/05/29 01:51:58;;;;;;;13.15;8.53;;;;;;;18.73;100.00;100510.09;1710360;84;21040;-74
2022/05/29 01:54:32;;;;;;;14.85;8.95;;;;;;;18.79;100.00;100503.12;1709957;83;21535;-74
2022/05/29 01:57:06;;;;;;;14.40;8.73;;;;;;;18.89;100.00;100512.36;1710658;84;21571;-74
2022/05/29 02:00:03;;;;;;;11.78;8.25;;;;;;;18.91;100.00;100508.67;1707201;84;21035;-74
2022/05/29 02:02:49;;;;;;;12.35;9.08;;;;;;;18.89;100.00;100509.75;1710296;84;21047;-74
2022/05/29 02:05:18;;;;;;;;;;;;;;;18.92;100.00;100510.83;1675739;83;21056;-74
2022/05/29 02:07:50;;;;;;;12.75;8.70;;;;;;;18.88;100.00;100514.15;1710504;84;20098;-74
2022/05/29 02:10:43;;;;;;;16.97;9.10;;;;;;;18.94;100.00;100514.97;1710492;84;21147;-75
2022/05/29 02:13:35;;;;;;;11.18;8.13;;;;;;;19.04;100.00;100510.31;1710132;83;21052;-74
2022/05/29 02:16:12;;;;;;;13.38;8.75;;;;;;;19.04;100.00;100502.03;1709954;84;21028;-74
2022/05/29 02:18:50;;;;;;;14.95;8.58;;;;;;;19.05;100.00;100497.63;1710325;84;21126;-74
2022/05/29 02:21:42;;;;;;;18.57;9.45;;;;;;;19.10;100.00;100508.06;1708671;83;21040;-74
2022/05/29 02:24:14;;;;;;;14.73;9.53;;;;;;;19.16;100.00;100514.09;1638342;87;21015;-74
2022/05/29 02:26:46;;;;;;;17.15;9.03;;;;;;;19.15;100.00;100511.11;1710225;84;21098;-73
2022/05/29 02:29:15;;;;;;;12.93;8.38;;;;;;;19.19;100.00;100514.31;1710470;83;21507;-73
2022/05/29 02:32:08;;;;;;;10.63;7.70;;;;;;;19.28;100.00;100504.91;1710039;84;21059;-73
2022/05/29 02:35:11;;;;;;;13.03;8.93;;;;;;;19.29;100.00;100506.09;1671162;85;21023;-74
2022/05/29 02:37:46;;;;;;;11.05;8.23;;;;;;;19.36;100.00;100511.19;1671007;86;21051;-74
2022/05/29 02:40:33;;;;;;;11.08;8.15;;;;;;;19.39;100.00;100514.02;1697609;84;21040;-74
2022/05/29 02:43:23;;;;;;;11.18;8.35;;;;;;;19.41;100.00;100520.76;1710521;83;21043;-73
2022/05/29 02:46:11;;;;;;;12.47;8.05;;;;;;;19.45;100.00;100533.09;1690507;84;21046;-73
2022/05/29 02:49:01;;;;;;;11.53;7.55;;;;;;;19.45;100.00;100522.66;1710205;84;21130;-73
2022/05/29 02:51:40;;;;;;;11.50;7.72;;;;;;;19.44;100.00;100516.24;1710450;83;21008;-73
2022/05/29 02:54:13;;;;;;;11.45;5.75;;;;;;;19.47;100.00;100527.76;1710066;83;21031;-73
2022/05/29 02:56:41;;;;;;;10.80;6.45;;;;;;;19.48;100.00;100534.62;1713827;83;21531;-73
2022/05/29 02:59:08;;;;;;;13.58;7.10;;;;;;;19.50;100.00;100541.85;1709994;84;21039;-73
2022/05/29 03:01:44;;;;;;;11.15;7.40;;;;;;;19.49;100.00;100547.55;1710381;84;21004;-73
2022/05/29 03:04:43;;;;;;;10.75;7.20;;;;;;;19.41;100.00;100557.31;1690183;84;21051;-72
2022/05/29 03:07:33;;;;;;;10.20;7.05;;;;;;;19.31;100.00;100575.97;1709962;84;21051;-73
2022/05/29 03:10:20;;;;;;;10.68;6.67;;;;;;;19.24;100.00;100573.95;1709891;84;21063;-73
2022/05/29 03:13:08;;;;;;;10.10;6.80;;;;;;;19.35;100.00;100538.70;1710555;84;21063;-73
2022/05/29 03:16:07;;;;;;;13.08;6.47;;;;;;;19.45;100.00;100516.13;1710152;83;21024;-73
2022/05/29 03:19:09;;;;;;;10.48;6.55;;;;;;;19.47;100.00;100525.97;1710108;84;21599;-73
2022/05/29 03:22:05;;;;;;;9.55;6.28;;;;;;;19.66;100.00;100547.96;1710112;83;21044;-73
2022/05/29 03:24:53;;;;;;;10.85;6.08;;;;;;;19.70;100.00;100552.80;1710242;84;21024;-72
2022/05/29 03:27:43;;;;;;;10.00;6.20;;;;;;;19.72;100.00;100551.41;1710150;84;21070;-72
2022/05/29 03:30:30;;;;;;;9.75;5.50;;;;;;;19.80;100.00;100556.83;1710415;84;21055;-73
2022/05/29 03:33:01;;;;;;;7.50;5.42;;;;;;;19.91;100.00;100552.88;1689904;84;21071;-73
2022/05/29 03:35:36;;;;;;;8.73;5.75;;;;;;;19.99;100.00;100549.14;1710356;84;21081;-73
2022/05/29 03:38:05;;;;;;;8.55;5.87;;;;;;;20.12;100.00;100559.39;1710432;84;21091;-73
2022/05/29 03:40:34;;;;;;;9.98;6.28;;;;;;;20.08;100.00;100564.52;1710261;84;21516;-73
2022/05/29 03:43:02;;;;;;;12.03;6.08;;;;;;;19.97;100.00;100579.80;1710246;84;21066;-73
2022/05/29 03:45:29;;;;;;;10.98;6.28;;;;;;;19.92;100.00;100579.81;1710231;84;21043;-73
2022/05/29 03:47:57;;;;;;;11.18;6.35;;;;;;;19.91;100.00;100575.53;1710044;83;21075;-72
2022/05/29 03:50:26;;;;;;;10.75;6.37;;;;;;;19.92;100.00;100584.56;1688480;84;21071;-72
2022/05/29 03:52:54;;;;;;;8.98;5.75;;;;;;;19.88;100.00;100598.83;1710232;84;21027;-72
2022/05/29 03:55:26;;;;;;;6.70;4.78;;;;;;;19.87;100.00;100612.01;1714174;83;21575;-73
2022/05/29 03:57:53;;;;;;;8.80;4.80;;;;;;;19.87;100.00;100612.86;1718147;83;21015;-74
2022/05/29 04:00:23;;;;;;;6.67;4.85;;;;;;;19.91;100.00;100602.51;1717973;83;21043;-73
2022/05/29 04:02:53;;;;;;;7.92;4.58;;;;;;;19.93;100.00;100582.31;1718142;83;20975;-73
2022/05/29 04:05:23;;;;;;;7.87;4.33;;;;;;;20.01;100.00;100595.57;1718230;83;21547;-73
2022/05/29 04:13:28;;;;;;;6.85;3.60;;;;;;;20.01;100.00;100605.17;1718194;83;21579;-73
2022/05/29 04:15:55;;;;;;;7.42;3.27;;;;;;;20.00;97.91;100600.92;1718241;83;21015;-73
2022/05/29 04:18:23;;;;;;;4.05;3.02;;;;;;;20.05;89.39;100605.27;1718032;83;21594;-73
2022/05/29 04:20:52;;;;;;;5.17;3.30;;;;;;;20.12;86.85;100616.89;1718123;83;21063;-73
2022/05/29 04:23:19;;;;;;;5.35;3.08;;;;;;;20.17;85.02;100621.27;1718146;83;21078;-73
2022/05/29 04:25:46;;;;;;;6.28;3.50;;;;;;;20.22;87.53;100626.11;1718190;83;21484;-73
2022/05/29 04:28:14;;;;;;;7.33;3.55;;;;;;;20.17;88.87;100636.10;1717999;83;21035;-73
2022/05/29 04:30:42;;;;;;;6.42;2.98;;;;;;;20.28;88.51;100633.92;1718421;83;21023;-73
2022/05/29 04:33:10;;;;;;;5.55;3.65;;;;;;;20.30;86.16;100639.38;1718234;83;21074;-73
2022/05/29 04:35:45;;;;;;;5.30;3.40;;;;;;;20.35;84.83;100621.50;1688851;83;21095;-73
2022/05/29 04:38:15;;;;;;;5.08;3.27;;;;;;;20.36;83.10;100611.89;1713570;83;21535;-73
2022/05/29 04:40:44;;;;;;;6.10;3.77;;;;;;;20.43;82.97;100609.09;1718267;83;21099;-73
2022/05/29 04:43:14;;;;;;;7.80;3.30;;;;;;;20.55;82.09;100619.02;1718202;83;21050;-73
2022/05/29 04:45:43;;;;;;;6.12;3.52;;;;;;;20.53;79.72;100617.00;1688644;83;21000;-73
2022/05/29 04:48:12;;;;;;;8.63;4.37;;;;;;;20.53;79.34;100603.44;1718067;83;21524;-73
2022/05/29 04:50:40;;;;;;;7.65;4.30;;;;;;;20.66;77.06;100601.12;1718160;83;21019;-73
2022/05/29 04:53:07;;;;;;;7.42;4.85;;;;;;;20.93;77.30;100610.54;1718258;83;21047;-73
2022/05/29 04:55:35;;;;;;;9.58;5.30;;;;;;;21.03;76.88;100615.00;1713916;83;21504;-74
2022/05/29 04:58:03;;;;;;;8.18;5.80;;;;;;;20.99;78.33;100616.55;1713639;83;21576;-74
2022/05/29 05:00:32;;;;;;;11.88;6.70;;;;;;;20.89;79.18;100614.38;1710194;83;21067;-73
2022/05/29 05:03:01;;;;;;;9.18;6.20;;;;;;;20.61;77.21;100611.98;1710107;84;21544;-73
2022/05/29 05:05:29;;;;;;;11.05;6.47;;;;;;;20.54;76.84;100613.41;1710278;83;20988;-73
2022/05/29 05:07:56;;;;;;;9.98;6.58;;;;;;;20.50;77.02;100618.55;1709988;84;21044;-73
2022/05/29 05:10:23;;;;;;;10.15;6.72;;;;;;;20.56;77.30;100618.89;1710395;84;21551;-73
2022/05/29 05:12:52;;;;;;;11.12;6.42;;;;;;;20.62;77.23;100612.34;1710322;84;21043;-73
2022/05/29 05:15:19;;;;;;;9.18;5.87;;;;;;;20.56;76.65;100611.50;1710104;83;21576;-73
2022/05/29 05:17:46;;;;;;;11.20;5.67;;;;;;;20.59;75.43;100602.13;1710172;84;21087;-74
2022/05/29 05:20:14;;;;;;;8.55;5.20;;;;;;;20.79;74.25;100605.18;1688932;84;21032;-74
2022/05/29 05:22:41;;;;;;;7.92;4.47;;;;;;;20.79;72.66;100612.21;1710289;83;21525;-73
2022/05/29 05:25:11;;;;;;;8.48;4.72;;;;;;;20.91;70.55;100615.08;1710217;84;21544;-73
2022/05/29 05:27:39;;;;;;;10.98;5.78;;;;;;;20.99;69.56;100626.20;1710307;84;21144;-73
2022/05/29 05:30:09;;;;;;;11.28;7.00;;;;;;;20.94;70.31;100632.30;1710286;83;21052;-73
2022/05/29 05:32:36;;;;;;;10.63;7.45;;;;;;;20.85;72.33;100631.30;1710307;84;21028;-71
2022/05/29 05:35:07;;;;;;;12.63;7.47;;;;;;;20.75;73.10;100629.95;1710074;84;21067;-73
2022/05/29 05:37:37;;;;;;;7.60;5.20;;;;;;;20.55;74.04;100630.78;1710312;84;21512;-72
2022/05/29 05:40:09;;;;;;;11.55;5.00;;;;;;;20.11;74.85;100638.73;1710281;84;21095;-72
2022/05/29 05:42:37;;;;;;;9.10;4.85;;;;;;;20.18;75.50;100647.74;1709191;83;21568;-72
2022/05/29 05:45:09;;;;;;;8.73;4.67;;;;;;;20.15;76.57;100652.39;1709987;84;21047;-72
2022/05/29 05:47:38;;;;;;;7.67;4.85;;;;;;;20.23;76.74;100651.27;1710198;83;21044;-73
2022/05/29 05:50:09;;;;;;;6.90;4.10;;;;;;;19.31;79.28;100649.05;1709969;83;21091;-73
2022/05/29 05:52:38;;;;;;;7.92;4.28;;;;;;;20.12;77.59;100653.48;1710304;84;21043;-73
2022/05/29 05:55:10;;;;;;;7.60;4.28;;;;;;;20.12;78.12;100646.13;1710243;84;21568;-73
2022/05/29 05:57:39;;;;;;;8.00;5.10;;;;;;;20.31;76.76;100655.39;1679023;84;21091;-74
2022/05/29 06:00:12;;;;;;;8.23;5.40;;;;;;;20.39;75.98;100650.35;1710384;83;21043;-74
2022/05/29 06:02:42;;;;;;;9.88;5.62;;;;;;;20.43;74.74;100652.73;1710198;84;21067;-74
2022/05/29 06:05:13;;;;;;;9.78;6.60;;;;;;;20.30;74.45;100643.78;1639505;87;21516;-74
2022/05/29 06:07:42;;;;;;;12.13;6.90;;;;;;;20.08;75.26;100642.92;1710045;84;21059;-73
2022/05/29 06:10:11;;;;;;;9.03;6.40;;;;;;;20.35;75.40;100641.59;1716402;82;21002;-74
2022/05/29 06:12:40;;;;;;;12.43;6.83;;;;;;;20.12;75.27;100648.73;1677645;85;21461;-73
2022/05/29 06:15:09;;;;;;;9.83;6.53;;;;;;;20.21;74.81;100657.11;1699491;84;21027;-74
2022/05/29 06:17:37;;;;;;;13.72;6.25;;;;;;;20.01;74.34;100648.28;1699486;84;21110;-72
2022/05/29 06:20:07;;;;;;;10.25;5.90;;;;;;;19.81;75.53;100647.32;1699689;84;21570;-73
2022/05/29 06:22:39;;;;;;;8.60;5.35;;;;;;;19.96;76.12;100643.93;1702116;84;20983;-73
2022/05/29 06:25:10;;;;;;;9.48;5.47;;;;;;;19.93;75.52;100649.39;1734324;82;21011;-73
2022/05/29 06:27:40;;;;;;;8.48;5.00;;;;;;;19.88;74.80;100652.38;1731778;82;21499;-72
2022/05/29 06:30:11;;;;;;;8.45;4.60;;;;;;;19.97;74.29;100655.56;1736217;82;21005;-74
2022/05/29 06:32:40;;;;;;;11.22;4.90;;;;;;;19.85;74.53;100643.50;1703011;84;20975;-73
2022/05/29 06:35:11;;;;;;;8.08;4.70;;;;;;;20.05;74.05;100641.85;1737085;82;21031;-74
2022/05/29 06:37:39;;;;;;;9.93;4.90;;;;;;;20.46;73.10;100647.23;1736639;82;20980;-74
2022/05/29 06:40:09;;;;;;;9.28;4.05;;;;;;;20.33;73.40;100642.20;1729801;82;21039;-73
2022/05/29 06:42:38;;;;;;;8.83;4.85;;;;;;;20.66;72.13;100645.59;1732968;82;20981;-74
2022/05/29 06:45:09;;;;;;;8.68;5.42;;;;;;;20.92;72.04;100638.96;1735249;82;20972;-74
2022/05/29 06:47:39;;;;;;;8.00;4.97;;;;;;;20.95;71.52;100638.71;1733128;82;21556;-75
2022/05/29 06:50:09;;;;;;;10.95;5.35;;;;;;;20.93;71.18;100636.70;1731987;82;21016;-75
2022/05/29 06:52:37;;;;;;;10.45;5.37;;;;;;;20.66;72.38;100635.12;1732960;82;21498;-74
2022/05/29 06:55:08;;;;;;;9.03;5.42;;;;;;;20.39;72.60;100631.23;1735829;82;21017;-74
2022/05/29 06:57:44;;;;;;;7.92;4.78;;;;;;;20.33;73.12;100633.87;1722203;83;21488;-74
2022/05/29 07:08:33;;;;;;;11.50;3.50;;;;;;;21.01;70.95;100655.20;1719751;83;21053;-76
2022/05/29 07:11:18;;;;;;;5.45;3.37;;;;;;;20.61;71.13;100657.75;1720130;83;21122;-73
2022/05/29 07:13:46;;;;;;;6.62;3.42;;;;;;;21.27;70.37;100659.98;1719904;83;21069;-73
2022/05/29 07:16:15;;;;;;;8.50;3.42;;;;;;;21.08;71.16;100659.91;1719880;83;21494;-74
2022/05/29 07:18:43;;;;;;;8.05;3.37;;;;;;;20.87;71.91;100656.86;1719570;83;21081;-75
2022/05/29 07:21:10;;;;;;;7.12;3.35;;;;;;;20.68;72.80;100665.45;1691717;83;21541;-74
2022/05/29 07:23:38;;;;;;;6.97;3.25;;;;;;;20.68;73.78;100665.91;1691699;83;21045;-74
2022/05/29 07:26:05;;;;;;;8.08;3.30;;;;;;;20.57;73.56;100661.55;1719747;83;21041;-74
2022/05/29 07:28:32;;;;;;;3.33;2.75;;;;;;;20.50;73.89;100659.94;1719566;83;21018;-73
2022/05/29 07:31:00;;;;;;;7.00;3.02;;;;;;;20.60;74.25;100667.39;1719871;83;21085;-74
2022/05/29 07:33:28;;;;;;;5.20;3.22;;;;;;;20.68;73.94;100671.14;1719542;83;21013;-75
2022/05/29 07:35:56;;;;;;;6.10;2.85;;;;;;;20.37;74.49;100677.11;1719769;83;21084;-74
2022/05/29 07:38:23;;;;;;;6.03;3.02;;;;;;;20.38;74.72;100679.27;1719604;83;21081;-74
2022/05/29 07:40:50;;;;;;;5.35;3.02;;;;;;;20.35;75.26;100670.35;1719639;83;21065;-74
2022/05/29 07:43:26;;;;;;;4.83;3.00;;;;;;;20.46;75.45;100674.69;1719859;83;21049;-75
2022/05/29 07:45:56;;;;;;;5.10;2.98;;;;;;;20.51;75.38;100673.34;1719026;83;21045;-74
2022/05/29 07:48:26;;;;;;;;;;;;;;;20.86;75.28;100673.50;1722324;83;21010;-74
2022/05/29 07:50:53;;;;;;;9.05;3.02;;;;;;;21.11;74.67;100681.41;1719614;83;20153;-74
2022/05/29 07:53:22;;;;;;;5.42;3.00;;;;;;;20.83;74.78;100680.80;1720003;83;21535;-74
2022/05/29 07:55:49;;;;;;;4.58;2.55;;;;;;;20.79;73.43;100693.31;1721304;83;21045;-74
2022/05/29 07:58:17;;;;;;;2.80;2.47;;;;;;;20.96;73.59;100699.23;1726038;83;21017;-75
2022/05/29 08:00:44;;;;;;;4.80;2.77;;;;;;;21.18;73.65;100694.80;1726159;83;21005;-74
2022/05/29 08:03:11;;;;;;;5.72;2.87;;;;;;;21.50;72.80;100697.77;1726290;83;20969;-74
2022/05/29 08:05:41;;;;;;;4.45;2.60;;;;;;;21.70;72.31;100698.16;1725869;83;21081;-74
2022/05/29 08:08:10;;;;;;;4.25;2.33;;;;;;;21.59;73.22;100700.88;1726160;83;21013;-74
2022/05/29 08:10:40;;;;;;;6.45;2.37;;;;;;;21.59;72.39;100702.19;1726222;83;21537;-74
2022/05/29 08:13:08;;;;;;;4.53;2.52;;;;;;;21.96;71.88;100706.33;1702256;83;21056;-75
2022/05/29 08:15:36;;;;;;;3.62;2.83;;;;;;;21.56;72.29;100701.98;1724520;83;21076;-75
2022/05/29 08:18:05;;;;;;;7.22;3.20;;;;;;;21.76;72.02;100710.72;1724648;83;21135;-74
2022/05/29 08:20:36;;;;;;;29.20;15.40;;;;;;;21.45;72.14;100720.44;1725483;83;21037;-75
2022/05/29 08:23:04;;;;;;;31.82;14.83;;;;;;;21.45;72.03;100731.38;1725080;83;21124;-74
2022/05/29 08:31:04;;;;;;;16.93;6.78;;;;;;;21.64;73.37;100723.59;1721364;81;21492;-75
2022/05/29 08:33:35;;;;;;;5.58;2.98;;;;;;;21.55;73.59;100726.53;1732842;82;20992;-75
2022/05/29 08:36:11;;;;;;;3.42;2.50;;;;;;;21.27;73.87;100724.13;1736554;82;21091;-74
2022/05/29 08:38:43;;;;;;;5.83;2.62;;;;;;;20.92;74.74;100735.78;1697211;84;21018;-74
2022/05/29 08:41:45;;;;;;;6.03;3.20;;;;;;;20.50;76.71;100733.61;1733167;82;21086;-74
2022/05/29 08:44:16;;;;;;;20.60;9.88;;;;;;;20.52;77.49;100742.16;1699246;83;21028;-75
2022/05/29 08:46:49;;;;;;;15.48;6.87;;;;;;;20.69;77.38;100756.52;1702355;84;21027;-74
2022/05/29 08:49:22;;;;;;;8.35;4.00;;;;;;;20.63;77.62;100751.31;1731625;82;21135;-75
2022/05/29 08:52:17;;;;;;;17.65;8.20;;;;;;;20.28;78.38;100741.11;1735791;82;21061;-75
2022/05/29 08:54:56;;;;;;;9.58;4.62;;;;;;;20.28;78.82;100738.49;1739078;82;21070;-74
2022/05/29 08:57:40;;;;;;;4.58;3.05;;;;;;;20.36;78.78;100750.46;1743893;82;21266;-76
2022/05/29 09:00:16;;;;;;;7.92;4.42;;;;;;;20.40;78.46;100763.64;1753681;82;21083;-74
2022/05/29 09:03:20;;;;;;;21.77;10.48;;;;;;;20.26;79.21;100770.47;1757390;82;21066;-74
2022/05/29 09:05:53;;;;;;;25.60;11.22;;;;;;;20.08;80.06;100781.92;1750467;82;21036;-74
2022/05/29 09:08:44;;;;;;;16.15;7.10;;;;;;;20.12;80.35;100775.01;1742174;82;21050;-74
2022/05/29 09:11:16;;;;;;;23.65;10.80;;;;;;;19.97;81.63;100778.83;1741526;82;21058;-74
2022/05/29 09:13:53;;;;;;;16.23;7.72;;;;;;;20.07;82.04;100786.29;1743794;82;21015;-75
2022/05/29 09:16:24;;;;;;;11.08;5.92;;;;;;;19.95;82.96;100793.80;1740871;82;21066;-74
2022/05/29 09:19:36;;;;;;;8.98;5.12;;;;;;;20.18;82.79;100799.83;1739363;81;21091;-74
2022/05/29 09:22:14;;;;;;;10.00;5.12;;;;;;;20.24;82.67;100798.03;1706992;83;21051;-75
2022/05/29 09:25:11;;;;;;;11.00;5.22;;;;;;;20.34;81.91;100796.33;1703201;83;21063;-74
2022/05/29 09:27:43;;;;;;;9.10;6.33;;;;;;;20.25;84.21;100797.55;1682537;85;21468;-74
2022/05/29 09:30:11;;;;;;;11.95;6.22;;;;;;;20.45;84.24;100804.61;1694159;84;21004;-75
2022/05/29 09:32:54;;;;;;;12.30;7.67;;;;;;;20.44;84.97;100799.04;1713231;82;21042;-74
2022/05/29 09:35:44;;;;;;;12.30;6.40;;;;;;;20.36;85.11;100795.73;1680066;84;21621;-74
2022/05/29 09:38:45;;;;;;;11.35;6.80;;;;;;;20.33;85.41;100798.58;1682076;85;21101;-74
2022/05/29 09:41:34;;;;;;;14.60;8.10;;;;;;;20.13;85.88;100801.97;1691988;82;21034;-74
2022/05/29 09:44:16;;;;;;;13.90;8.85;;;;;;;20.39;86.57;100815.08;1681993;84;21035;-72
2022/05/29 09:46:51;;;;;;;10.75;8.00;;;;;;;20.08;86.33;100827.17;1738921;82;21020;-73
2022/05/29 09:49:40;;;;;;;11.45;6.30;;;;;;;20.12;85.45;100831.20;1750581;81;20982;-74
2022/05/29 09:52:19;;;;;;;9.80;6.47;;;;;;;20.00;86.39;100830.86;1743038;81;21039;-74
2022/05/29 09:55:19;;;;;;;9.00;6.10;;;;;;;19.80;87.18;100848.91;1725465;82;21070;-73
2022/05/29 09:58:16;;;;;;;11.10;5.70;;;;;;;19.60;89.25;100842.58;1708095;82;21033;-74
2022/05/29 10:00:55;;;;;;;5.10;4.00;;;;;;;19.92;90.91;100839.78;1671955;85;21567;-73
2022/05/29 10:03:57;;;;;;;7.87;4.60;;;;;;;19.86;91.59;100835.86;1678320;85;21040;-74
2022/05/29 10:06:42;;;;;;;8.15;4.47;;;;;;;19.61;94.57;100824.67;1678902;85;21077;-73
2022/05/29 10:09:20;;;;;;;8.03;4.10;;;;;;;19.30;100.00;100811.84;1692754;83;21056;-73
2022/05/29 10:11:58;;;;;;;6.33;4.33;;;;;;;19.65;99.32;100803.08;1760674;81;21053;-74
2022/05/29 10:14:41;;;;;;;8.40;5.35;;;;;;;19.47;99.50;100798.80;1764092;81;21071;-74
2022/05/29 10:17:31;;;;;;;13.78;7.42;;;;;;;19.67;98.42;100795.95;1764017;81;21121;-73
2022/05/29 10:19:58;;;;;;;10.25;5.90;;;;;;;20.11;95.61;100797.34;1761374;81;21049;-73
2022/05/29 10:22:41;;;;;;;10.15;6.70;;;;;;;20.05;94.65;100794.73;1731992;81;21047;-74
2022/05/29 10:25:18;;;;;;;10.05;5.30;;;;;;;20.21;95.98;100782.58;1724734;83;21043;-74
2022/05/29 10:27:49;;;;;;;10.43;5.80;;;;;;;20.77;90.46;100784.18;1726765;81;21012;-75
2022/05/29 10:30:56;;;;;;;10.95;7.33;;;;;;;20.58;89.83;100787.00;1726628;83;21102;-73
2022/05/29 10:33:29;;;;;;;10.35;6.17;;;;;;;20.79;88.73;100782.27;1720119;81;22322;-75
2022/05/29 10:36:12;;;;;;;14.30;5.97;;;;;;;20.27;89.62;100780.77;1764644;81;21034;-73
2022/05/29 10:38:40;;;;;;;10.58;5.75;;;;;;;19.57;93.73;100781.95;1762322;81;21057;-73
2022/05/29 10:41:10;;;;;;;8.55;4.87;;;;;;;19.71;94.83;100788.27;1764943;81;21097;-75
2022/05/29 10:43:47;;;;;;;6.80;4.20;;;;;;;19.71;94.61;100794.80;1753010;81;21036;-74
2022/05/29 10:46:22;;;;;;;7.30;4.80;;;;;;;19.38;94.98;100791.20;1734731;81;21043;-74
2022/05/29 10:49:26;;;;;;;9.13;5.00;;;;;;;19.12;97.89;100798.86;1739875;81;21554;-74
2022/05/29 10:52:20;;;;;;;10.05;4.95;;;;;;;19.25;98.89;100792.25;1758690;81;21069;-74
2022/05/29 10:55:25;;;;;;;6.25;3.70;;;;;;;19.33;99.50;100792.50;1765225;81;21038;-73
2022/05/29 10:58:16;;;;;;;5.25;3.20;;;;;;;19.27;100.00;100788.58;1744711;81;21551;-75
2022/05/29 11:03:17;;;;;;;4.55;3.00;;;;;;;19.13;100.00;100788.31;1733218;83;21090;-74
2022/05/29 11:04:14;;;;;;;4.47;3.15;;;;;;;19.13;100.00;100791.40;1738572;82;21050;-74
2022/05/29 11:07:08;;;;;;;5.92;3.20;;;;;;;19.32;99.95;100795.59;1728294;81;21074;-74
2022/05/29 11:09:58;;;;;;;4.45;3.30;;;;;;;19.31;99.33;100786.08;1733186;83;21063;-74
2022/05/29 11:13:05;;;;;;;4.30;3.20;;;;;;;19.49;99.61;100792.16;1733302;83;21051;-73
2022/05/29 11:16:15;;;;;;;4.83;3.25;;;;;;;19.79;98.39;100792.89;1732683;83;21051;-74
2022/05/29 11:19:19;;;;;;;5.12;3.27;;;;;;;20.00;96.67;100785.13;1735643;81;21087;-75
2022/05/29 11:22:04;;;;;;;4.47;2.70;;;;;;;20.03;95.93;100793.20;1734839;83;21051;-74
2022/05/29 11:24:37;;;;;;;3.70;2.45;;;;;;;19.81;95.78;100802.27;1734532;83;21007;-74
2022/05/29 11:27:15;;;;;;;3.45;2.40;;;;;;;20.06;93.03;100800.33;1765415;81;21063;-74
2022/05/29 11:29:58;;;;;;;4.62;2.60;;;;;;;20.35;89.79;100806.31;1676923;81;21089;-73
2022/05/29 11:32:55;;;;;;;5.53;3.08;;;;;;;20.47;88.61;100807.93;1765110;81;21507;-73
2022/05/29 11:35:36;;;;;;;4.58;3.77;;;;;;;20.62;88.09;100796.75;1754799;81;21042;-75
2022/05/29 11:38:35;;;;;;;4.28;2.70;;;;;;;20.76;86.66;100800.81;1734747;81;21051;-74
2022/05/29 11:41:29;;;;;;;5.08;3.52;;;;;;;20.84;86.63;100789.23;1703601;84;21085;-75
2022/05/29 11:44:20;;;;;;;4.83;2.98;;;;;;;21.59;84.26;100778.16;1705411;84;21026;-74
2022/05/29 11:52:51;;;;;;;5.15;2.50;;;;;;;21.62;83.09;100775.77;1705644;83;21070;-74
2022/05/29 11:55:28;;;;;;;3.87;2.30;;;;;;;21.88;81.21;100783.50;1705820;84;21054;-74
2022/05/29 11:58:19;;;;;;;4.40;2.50;;;;;;;21.28;81.98;100791.23;1700724;84;21016;-73
2022/05/29 12:01:03;;;;;;;3.87;2.52;;;;;;;21.25;83.41;100787.58;1698201;84;21083;-75
2022/05/29 12:03:56;;;;;;;8.35;5.22;;;;;;;20.56;85.12;100788.89;1698258;83;21063;-73
2022/05/29 12:06:41;;;;;;;6.67;3.42;;;;;;;20.64;86.84;100786.98;1697836;84;21091;-73
2022/05/29 12:09:32;;;;;;;6.87;2.87;;;;;;;20.70;86.33;100796.09;1697890;84;21047;-73
2022/05/29 12:12:19;;;;;;;7.70;3.90;;;;;;;20.28;88.98;100784.24;1698309;84;21043;-73
2022/05/29 12:14:56;;;;;;;4.37;2.60;;;;;;;20.25;89.87;100788.39;1709407;84;21079;-74
2022/05/29 12:17:37;;;;;;;7.42;3.08;;;;;;;20.10;89.21;100781.31;1675778;84;21052;-74
2022/05/29 12:20:22;;;;;;;2.30;2.10;;;;;;;20.27;89.26;100778.16;1697967;84;21071;-74
2022/05/29 12:22:57;;;;;;;4.00;2.80;;;;;;;20.23;88.03;100792.91;1694727;84;21057;-74
2022/05/29 12:25:47;;;;;;;4.92;2.75;;;;;;;20.25;88.35;100790.52;1698180;84;21027;-73
2022/05/29 12:28:36;;;;;;;4.80;2.22;;;;;;;20.47;87.55;100787.49;1698155;84;21016;-73
2022/05/29 12:31:09;;;;;;;3.70;2.50;;;;;;;20.71;86.26;100784.20;1697724;84;21591;-74